KINT/INT METAR and TAF weather

Enter ICAO airport designator
Station Type Date Time Source
KINT METAR 2019/12/13 16:54 UTC NOAA

KINT 131654Z 04006KT 4SM -RA BR OVC003 01/01 A3016 RMK AO2 UPB32E37RAB37 SLP218 P0001 T00060006


Station Type Date Time Source
KINT Decoded METAR 2019/12/13 16:54 UTC NOAA

WINSTON SALEM SMITH REYNOLDS, NC, United States (KINT) 36-08N 80-14W 291M
Dec 13, 2019 - 11:54 AM EST / 2019.12.13 1654 UTC
Wind: from the NE (040 degrees) at 7 MPH (6 KT):0
Visibility: 4 mile(s):0
Sky conditions: overcast
Weather: light rain; mist
Precipitation last hour: 0.01 inches
Temperature: 33.1 F (0.6 C)
Windchill: 26 F (-3 C):1
Dew Point: 33.1 F (0.6 C)
Relative Humidity: 100%
Pressure (altimeter): 30.16 in. Hg (1021 hPa)
ob: KINT 131654Z 04006KT 4SM -RA BR OVC003 01/01 A3016 RMK AO2 UPB32E37RAB37 SLP218 P0001 T00060006
cycle: 17

Station Type Date Time Source
KINT TAF 2019/12/13 15:04 UTC NOAA

TAF
AMD KINT 131501Z 1315/1412 03008KT 5SM -RA BR OVC005
TEMPO 1315/1319 2SM -RA BR OVC004
FM131900 02006KT 1/2SM -RA FG OVC004
FM140500 02002KT 1/4SM -RA FG OVC002

Example: see airport list